Shijiazhuang, China
Current Conditions -  °F | °C
As of 7:00 PM on Tuesday 21 Oct 2014 (Local Time) from ZBSJ Reporting Station
Overcast Overcast  
Wind Chill: 57°   Ceiling: 4600
Heat Index: 57°   Visibility: 6mi
Dew Point: 46°   Wind: 2mph
Humidity: 67%   Direction: 350°N
Pressure: 30.24"   Gusts: NA
Location:  38.05°N, 114.48°E
Report Text: ZBSJ 211100Z 35001MPS 9999 OVC046 14/08 Q1024 NOSIG
Loading
Personal Weather Stations






























Interactive Weather Map
Tropical Storm Tracking
New forecast layout! Learn more

10-Day Weather Forecast

Advertisements
Track Severe Weather on mobile